Time;durP1;ratioP1;P1;durP2;ratioP2;P2;SDS_P1;SDS_P2;PMS_P1;PMS_P2;Temp;Humidity;BMP_temperature;BMP_pressure;BME280_temperature;BME280_humidity;BME280_pressure;Samples;Min_cycle;Max_cycle;Signal;HPM_P1;HPM_P2
2022/03/16 00:02:27;;;;;;;3.17;1.05;;;23.00;99.90;;;;;;5096820;28;20020;-75
2022/03/16 00:04:56;;;;;;;3.85;1.33;;;22.90;99.90;;;;;;5096669;28;20032;-74
2022/03/16 00:07:24;;;;;;;3.85;1.52;;;22.90;99.90;;;;;;5095381;28;20492;-74
2022/03/16 00:09:51;;;;;;;4.00;1.48;;;22.70;99.90;;;;;;5095354;28;20024;-75
2022/03/16 00:12:19;;;;;;;4.78;1.60;;;22.60;99.90;;;;;;5095257;28;20459;-74
2022/03/16 00:14:46;;;;;;;4.82;1.30;;;22.50;99.90;;;;;;5096550;28;20020;-74
2022/03/16 00:17:14;;;;;;;3.35;1.35;;;22.70;99.90;;;;;;5096442;28;20032;-74
2022/03/16 00:19:42;;;;;;;3.72;1.50;;;22.80;99.90;;;;;;5095226;28;20020;-73
2022/03/16 00:22:10;;;;;;;4.85;1.27;;;22.70;99.90;;;;;;5095086;28;20040;-74
2022/03/16 00:24:37;;;;;;;3.30;1.30;;;22.80;99.90;;;;;;5096433;28;20024;-74
2022/03/16 00:27:05;;;;;;;5.05;1.70;;;23.00;99.90;;;;;;5096304;28;20031;-73
2022/03/16 00:29:32;;;;;;;3.10;1.23;;;23.10;99.90;;;;;;5095094;28;20123;-74
2022/03/16 00:32:00;;;;;;;5.57;1.27;;;23.10;99.90;;;;;;5094982;28;20059;-74
2022/03/16 00:34:28;;;;;;;2.92;1.23;;;23.10;99.90;;;;;;5094596;28;20048;-74
2022/03/16 00:36:55;;;;;;;4.72;0.98;;;23.00;99.90;;;;;;5096103;28;20056;-74
2022/03/16 00:39:22;;;;;;;4.05;1.33;;;23.20;99.90;;;;;;5096187;28;20381;-74
2022/03/16 00:41:50;;;;;;;4.43;1.00;;;23.30;99.90;;;;;;5096067;28;20422;-74
2022/03/16 00:44:17;;;;;;;4.60;0.52;;;23.40;99.90;;;;;;5094797;28;20135;-75
2022/03/16 00:46:45;;;;;;;2.67;0.77;;;23.30;99.90;;;;;;5094714;28;20395;-74
2022/03/16 00:49:12;;;;;;;2.97;0.73;;;23.30;99.90;;;;;;5094617;28;20020;-74
2022/03/16 00:51:40;;;;;;;6.47;0.82;;;23.30;99.90;;;;;;5094639;28;20396;-74
2022/03/16 00:54:07;;;;;;;3.80;1.08;;;23.40;99.90;;;;;;5094451;28;20090;-74
2022/03/16 00:56:35;;;;;;;3.42;0.82;;;23.40;99.90;;;;;;5094457;28;20114;-74
2022/03/16 00:59:02;;;;;;;3.45;0.70;;;23.50;99.90;;;;;;5094360;28;20393;-74
2022/03/16 01:01:29;;;;;;;3.60;0.80;;;23.70;99.90;;;;;;5095609;28;20016;-74
2022/03/16 01:03:57;;;;;;;2.42;0.70;;;23.70;99.90;;;;;;5094768;28;20020;-74
2022/03/16 01:06:24;;;;;;;6.07;0.98;;;23.90;99.90;;;;;;5095627;28;20078;-74
2022/03/16 01:08:52;;;;;;;2.97;0.90;;;23.80;99.90;;;;;;5094253;28;20020;-75
2022/03/16 01:11:19;;;;;;;3.75;0.70;;;24.00;99.90;;;;;;5095641;28;20023;-75
2022/03/16 01:13:47;;;;;;;4.13;0.98;;;24.60;99.90;;;;;;5095490;28;20017;-75
2022/03/16 01:16:14;;;;;;;6.85;1.25;;;24.70;99.90;;;;;;5094045;28;20036;-74
2022/03/16 01:18:42;;;;;;;4.78;1.00;;;24.40;99.90;;;;;;5095375;28;20472;-74
2022/03/16 01:21:10;;;;;;;3.03;0.70;;;24.40;99.90;;;;;;5095387;28;20020;-74
2022/03/16 01:23:38;;;;;;;6.13;1.30;;;24.90;99.90;;;;;;5095305;28;20027;-74
2022/03/16 01:26:06;;;;;;;5.65;0.90;;;25.00;99.90;;;;;;5095298;28;20023;-74
2022/03/16 01:28:34;;;;;;;4.68;1.20;;;25.20;99.90;;;;;;5093868;28;20028;-74
2022/03/16 01:31:02;;;;;;;4.63;0.80;;;25.40;99.90;;;;;;5095177;28;20115;-74
2022/03/16 01:33:30;;;;;;;5.32;1.10;;;25.10;99.90;;;;;;5094822;28;20024;-74
2022/03/16 01:35:58;;;;;;;5.15;1.05;;;24.90;99.90;;;;;;5095045;28;20024;-74
2022/03/16 01:38:26;;;;;;;5.70;1.20;;;24.90;99.90;;;;;;5094926;28;20564;-74
2022/03/16 01:40:53;;;;;;;5.60;1.17;;;24.70;99.90;;;;;;5094939;28;20066;-74
2022/03/16 01:43:21;;;;;;;4.93;0.90;;;24.70;99.90;;;;;;5094848;28;20051;-73
2022/03/16 01:45:50;;;;;;;5.03;1.10;;;24.60;99.90;;;;;;5094862;28;20059;-74
2022/03/16 01:48:18;;;;;;;6.88;1.10;;;24.40;99.90;;;;;;5094795;28;20028;-74
2022/03/16 01:50:49;;;;;;;4.50;1.08;;;24.20;99.90;;;;;;5094554;28;20048;-74
2022/03/16 01:53:17;;;;;;;6.10;1.50;;;24.20;99.90;;;;;;5094460;28;20031;-75
2022/03/16 01:55:44;;;;;;;9.02;1.23;;;24.40;99.90;;;;;;5093041;28;20072;-74
2022/03/16 01:58:12;;;;;;;5.55;1.30;;;24.60;99.90;;;;;;5093032;28;20373;-74
2022/03/16 02:00:41;;;;;;;4.15;1.00;;;25.00;99.90;;;;;;5094342;28;20438;-73
2022/03/16 02:03:08;;;;;;;4.65;0.90;;;25.40;99.90;;;;;;5094398;28;20024;-73
2022/03/16 02:05:36;;;;;;;4.40;0.98;;;25.40;99.90;;;;;;5094213;28;20056;-74
2022/03/16 02:08:05;;;;;;;4.93;0.90;;;25.60;99.90;;;;;;5094344;28;20503;-74
2022/03/16 02:10:35;;;;;;;4.05;1.17;;;25.40;99.90;;;;;;5092936;28;20032;-74
2022/03/16 02:13:03;;;;;;;3.47;1.00;;;25.50;99.90;;;;;;5094309;28;20027;-74
2022/03/16 02:15:30;;;;;;;4.05;0.90;;;25.50;99.90;;;;;;5091724;28;20142;-75
2022/03/16 02:17:58;;;;;;;5.18;0.80;;;25.50;99.90;;;;;;5093977;28;20056;-72
2022/03/16 02:20:27;;;;;;;7.82;3.22;;;25.40;99.90;;;;;;5092628;28;20463;-73
2022/03/16 02:22:58;;;;;;;5.88;1.33;;;25.50;99.90;;;;;;5094082;28;20471;-74
2022/03/16 02:25:27;;;;;;;6.82;1.40;;;25.40;99.90;;;;;;5093956;28;20384;-75
2022/03/16 02:27:55;;;;;;;4.30;1.35;;;25.60;99.90;;;;;;5092766;28;20016;-73
2022/03/16 02:30:24;;;;;;;5.45;1.10;;;25.90;99.90;;;;;;5093959;28;20051;-73
2022/03/16 02:32:52;;;;;;;3.92;0.88;;;26.40;99.90;;;;;;5093955;28;20019;-74
2022/03/16 02:35:20;;;;;;;3.53;0.80;;;26.60;99.90;;;;;;5093622;28;20465;-74
2022/03/16 02:37:47;;;;;;;4.38;0.90;;;26.90;99.90;;;;;;5092533;28;20081;-75
2022/03/16 02:40:20;;;;;;;3.58;1.05;;;26.80;99.90;;;;;;5093713;28;20012;-73
2022/03/16 02:42:48;;;;;;;3.95;1.08;;;26.70;99.90;;;;;;5093867;28;20533;-73
2022/03/16 02:45:15;;;;;;;3.80;1.00;;;26.50;99.90;;;;;;5093568;28;20019;-75
2022/03/16 02:47:43;;;;;;;4.25;1.02;;;26.40;99.90;;;;;;5092273;28;20024;-74
2022/03/16 02:50:12;;;;;;;4.95;0.90;;;26.30;99.90;;;;;;5093592;28;20034;-74
2022/03/16 02:52:41;;;;;;;4.32;1.10;;;26.20;99.90;;;;;;5093633;28;20020;-74
2022/03/16 02:55:09;;;;;;;6.63;1.05;;;26.60;99.90;;;;;;5093492;28;20024;-74
2022/03/16 02:57:37;;;;;;;4.95;1.30;;;26.70;99.90;;;;;;5093309;28;20202;-75
2022/03/16 03:00:07;;;;;;;5.07;1.23;;;26.90;99.90;;;;;;5091920;28;20047;-75
2022/03/16 03:02:35;;;;;;;8.13;1.15;;;27.50;99.90;;;;;;5091935;28;20016;-74
2022/03/16 03:05:03;;;;;;;5.43;1.00;;;27.60;99.90;;;;;;5091986;28;20028;-75
2022/03/16 03:07:30;;;;;;;6.00;1.00;;;28.00;99.90;;;;;;5093212;28;20384;-75
2022/03/16 03:09:58;;;;;;;4.63;0.90;;;28.00;99.90;;;;;;5093229;28;20448;-74
2022/03/16 03:12:25;;;;;;;6.93;1.33;;;27.80;99.90;;;;;;5093171;28;20077;-74
2022/03/16 03:14:52;;;;;;;7.32;1.27;;;27.50;99.90;;;;;;5091863;28;20084;-74
2022/03/16 03:17:20;;;;;;;6.18;1.20;;;27.60;99.90;;;;;;5093124;28;20046;-73
2022/03/16 03:19:48;;;;;;;7.10;1.27;;;27.50;99.90;;;;;;5093172;28;20054;-74
2022/03/16 03:22:15;;;;;;;6.00;1.40;;;27.40;99.90;;;;;;5093154;28;20016;-74
2022/03/16 03:24:44;;;;;;;4.25;0.95;;;27.30;99.90;;;;;;5093057;28;20051;-74
2022/03/16 03:27:12;;;;;;;4.85;1.30;;;26.50;99.90;;;;;;5092746;28;20019;-74
2022/03/16 03:29:39;;;;;;;4.97;1.48;;;26.10;99.90;;;;;;5093151;28;20380;-74
2022/03/16 03:32:06;;;;;;;4.05;0.75;;;26.20;99.90;;;;;;5091606;28;20028;-73
2022/03/16 03:34:34;;;;;;;5.32;0.80;;;26.90;99.90;;;;;;5091457;28;20130;-74
2022/03/16 03:37:05;;;;;;;6.47;1.00;;;27.60;99.90;;;;;;5092856;28;20040;-74
2022/03/16 03:39:33;;;;;;;4.05;1.13;;;28.20;99.90;;;;;;5092996;28;20461;-74
2022/03/16 03:42:01;;;;;;;5.13;1.05;;;28.30;99.90;;;;;;5092848;28;20066;-74
2022/03/16 03:44:28;;;;;;;5.82;1.10;;;28.00;99.90;;;;;;5092840;28;20052;-74
2022/03/16 03:46:55;;;;;;;4.35;1.10;;;28.00;99.90;;;;;;5092858;28;20047;-74
2022/03/16 03:49:23;;;;;;;5.55;0.98;;;28.20;99.90;;;;;;5091542;28;20024;-74
2022/03/16 03:51:50;;;;;;;5.72;1.13;;;28.10;99.90;;;;;;5092794;28;20024;-74
2022/03/16 03:54:17;;;;;;;6.30;1.30;;;28.40;99.90;;;;;;5091375;28;20032;-73
2022/03/16 03:56:44;;;;;;;4.03;1.08;;;28.40;99.90;;;;;;5092762;28;20027;-75
2022/03/16 03:59:12;;;;;;;6.55;1.10;;;28.00;99.90;;;;;;5092760;28;20396;-74
2022/03/16 04:01:39;;;;;;;4.15;1.00;;;27.80;99.90;;;;;;5092719;28;20016;-74
2022/03/16 04:04:07;;;;;;;4.38;0.90;;;27.90;99.90;;;;;;5092624;28;20012;-74
2022/03/16 04:06:34;;;;;;;4.93;1.20;;;28.00;99.90;;;;;;5092754;28;20031;-74
2022/03/16 04:09:02;;;;;;;5.55;1.13;;;28.20;99.90;;;;;;5092639;28;20017;-74
2022/03/16 04:11:29;;;;;;;4.57;0.90;;;27.90;99.90;;;;;;5092717;28;20026;-74
2022/03/16 04:13:57;;;;;;;4.40;0.90;;;27.90;99.90;;;;;;5092519;28;20039;-74
2022/03/16 04:16:24;;;;;;;4.30;0.93;;;28.00;99.90;;;;;;5091242;28;20054;-74
2022/03/16 04:18:52;;;;;;;5.22;0.85;;;28.20;99.90;;;;;;5092461;28;20477;-74
2022/03/16 04:21:19;;;;;;;4.57;0.95;;;28.10;99.90;;;;;;5092530;28;20095;-74
2022/03/16 04:23:46;;;;;;;5.55;1.00;;;27.60;99.90;;;;;;5091151;28;20468;-74
2022/03/16 04:26:14;;;;;;;4.00;0.98;;;27.60;99.90;;;;;;5090999;28;20028;-74
2022/03/16 04:28:41;;;;;;;3.83;0.93;;;27.90;99.90;;;;;;5092388;28;20023;-74
2022/03/16 04:31:09;;;;;;;8.82;1.98;;;28.20;99.90;;;;;;5092427;28;20028;-74
2022/03/16 04:33:37;;;;;;;5.13;1.00;;;28.20;99.90;;;;;;5092164;28;20040;-74
2022/03/16 04:36:08;;;;;;;4.72;1.00;;;28.20;99.90;;;;;;5091013;28;20040;-74
2022/03/16 04:38:35;;;;;;;4.30;1.10;;;28.10;99.90;;;;;;5094681;28;20472;-73
2022/03/16 04:41:04;;;;;;;4.57;1.20;;;27.80;99.90;;;;;;5096016;28;20016;-74
2022/03/16 04:43:31;;;;;;;5.07;1.48;;;27.80;99.90;;;;;;5095929;28;20021;-74
2022/03/16 04:45:59;;;;;;;4.15;0.90;;;27.80;99.90;;;;;;5096387;28;20478;-73
2022/03/16 04:48:26;;;;;;;4.57;1.20;;;28.20;99.90;;;;;;5095855;28;20058;-74
2022/03/16 04:50:53;;;;;;;4.40;1.00;;;28.50;99.90;;;;;;5094567;28;20024;-74
2022/03/16 04:53:21;;;;;;;9.38;1.42;;;28.40;99.90;;;;;;5095866;28;20028;-74
2022/03/16 04:55:48;;;;;;;7.35;1.70;;;28.20;99.90;;;;;;5095704;28;20358;-74
2022/03/16 04:58:15;;;;;;;5.30;1.10;;;28.10;99.90;;;;;;5095767;28;20016;-74
2022/03/16 05:00:43;;;;;;;5.68;1.35;;;28.00;99.90;;;;;;5094322;28;20027;-75
2022/03/16 05:03:10;;;;;;;5.20;1.00;;;27.80;99.90;;;;;;5094320;28;20020;-74
2022/03/16 05:05:37;;;;;;;9.30;1.35;;;27.10;99.90;;;;;;5095487;28;20033;-74
2022/03/16 05:08:05;;;;;;;4.43;0.98;;;26.90;99.90;;;;;;5094281;28;20392;-74
2022/03/16 05:10:32;;;;;;;5.15;1.33;;;26.90;99.90;;;;;;5095491;28;20020;-74
2022/03/16 05:13:00;;;;;;;5.15;1.00;;;27.10;99.90;;;;;;5095470;28;20550;-74
2022/03/16 05:15:27;;;;;;;7.68;1.40;;;27.10;99.90;;;;;;5095290;28;20052;-74
2022/03/16 05:17:55;;;;;;;6.22;1.23;;;27.20;99.90;;;;;;5095409;28;20020;-74
2022/03/16 05:20:22;;;;;;;5.78;1.20;;;27.20;99.90;;;;;;5095143;28;20020;-75
2022/03/16 05:22:51;;;;;;;6.68;1.60;;;27.10;99.90;;;;;;5093829;28;20048;-74
2022/03/16 05:25:22;;;;;;;4.85;1.23;;;26.80;99.90;;;;;;5095168;28;20024;-74
2022/03/16 05:27:50;;;;;;;7.95;1.15;;;26.80;99.90;;;;;;5095410;28;20074;-74
2022/03/16 05:30:20;;;;;;;5.15;1.20;;;26.70;99.90;;;;;;5095038;28;20035;-74
2022/03/16 05:32:50;;;;;;;7.22;1.20;;;26.60;99.90;;;;;;5095143;28;20540;-74
2022/03/16 05:35:17;;;;;;;8.30;1.20;;;26.80;99.90;;;;;;5094717;28;20067;-74
2022/03/16 05:37:44;;;;;;;4.28;0.85;;;26.50;99.90;;;;;;5094903;28;20024;-74
2022/03/16 05:40:12;;;;;;;5.43;1.10;;;26.50;99.90;;;;;;5093522;28;20016;-74
2022/03/16 05:42:40;;;;;;;5.05;1.27;;;26.20;99.90;;;;;;5094540;28;20047;-74
2022/03/16 05:45:08;;;;;;;5.65;0.90;;;26.20;99.90;;;;;;5094458;28;20036;-74
2022/03/16 05:47:36;;;;;;;5.22;1.05;;;26.40;99.90;;;;;;5093132;28;20063;-74
2022/03/16 05:50:04;;;;;;;5.00;1.23;;;26.40;99.90;;;;;;5092876;28;20484;-74
2022/03/16 05:52:32;;;;;;;6.22;1.77;;;26.20;99.90;;;;;;5093216;28;20365;-74
2022/03/16 05:55:00;;;;;;;5.45;1.30;;;25.80;99.90;;;;;;5094468;28;20385;-73
2022/03/16 05:57:27;;;;;;;6.97;1.27;;;25.70;99.90;;;;;;5093174;28;20027;-74
2022/03/16 05:59:55;;;;;;;6.50;1.65;;;25.50;99.90;;;;;;5092993;28;20021;-74
2022/03/16 06:02:22;;;;;;;5.85;1.50;;;25.20;99.90;;;;;;5094373;28;20047;-74
2022/03/16 06:04:49;;;;;;;10.40;1.98;;;25.20;99.90;;;;;;5094175;28;20480;-74
2022/03/16 06:07:17;;;;;;;8.02;1.20;;;25.40;99.90;;;;;;5092966;28;20392;-74
2022/03/16 06:09:44;;;;;;;8.50;1.58;;;25.50;99.90;;;;;;5094528;28;20028;-74
2022/03/16 06:12:12;;;;;;;9.00;1.30;;;25.40;99.90;;;;;;5094304;28;20020;-74
2022/03/16 06:14:39;;;;;;;9.27;2.00;;;25.10;99.90;;;;;;5092872;28;20084;-74
2022/03/16 06:17:06;;;;;;;8.35;1.38;;;24.90;99.90;;;;;;5092912;28;20020;-74
2022/03/16 06:19:34;;;;;;;10.60;1.75;;;24.70;99.90;;;;;;5094328;28;20027;-75
2022/03/16 06:22:01;;;;;;;10.07;2.10;;;24.90;99.90;;;;;;5092787;28;20470;-75
2022/03/16 06:24:29;;;;;;;6.68;1.50;;;25.20;99.90;;;;;;5094185;28;20544;-75
2022/03/16 06:26:56;;;;;;;6.38;1.33;;;25.30;99.90;;;;;;5092701;28;20073;-74
2022/03/16 06:29:24;;;;;;;11.48;2.08;;;25.60;99.90;;;;;;5093994;28;20081;-74
2022/03/16 06:31:51;;;;;;;9.98;1.90;;;25.40;99.90;;;;;;5092625;28;20500;-75
2022/03/16 06:34:19;;;;;;;7.65;2.15;;;25.20;99.90;;;;;;5093506;28;20484;-74
2022/03/16 06:36:46;;;;;;;11.65;1.83;;;25.00;99.90;;;;;;5093625;28;20028;-75
2022/03/16 06:39:13;;;;;;;9.85;1.48;;;24.80;99.90;;;;;;5091957;28;20122;-73
2022/03/16 06:41:42;;;;;;;10.00;1.35;;;24.80;99.90;;;;;;5093198;28;20028;-74
2022/03/16 06:44:10;;;;;;;9.95;1.30;;;24.80;99.90;;;;;;5091885;28;20061;-74
2022/03/16 06:46:37;;;;;;;8.52;1.88;;;24.90;99.90;;;;;;5091711;28;20020;-74
2022/03/16 06:49:05;;;;;;;7.95;1.90;;;25.00;99.90;;;;;;5092924;28;20020;-73
2022/03/16 06:51:32;;;;;;;7.45;1.40;;;25.30;99.90;;;;;;5092992;28;20031;-74
2022/03/16 06:53:59;;;;;;;9.85;2.15;;;25.50;99.90;;;;;;5093085;28;20031;-73
2022/03/16 06:56:27;;;;;;;11.00;1.73;;;25.60;99.90;;;;;;5091365;28;20074;-73
2022/03/16 06:58:54;;;;;;;7.50;1.25;;;25.50;99.90;;;;;;5092913;28;20016;-74
2022/03/16 07:01:21;;;;;;;8.95;1.75;;;25.20;99.90;;;;;;5092224;28;20491;-73
2022/03/16 07:03:49;;;;;;;9.38;1.58;;;24.90;99.90;;;;;;5091279;28;20024;-74
2022/03/16 07:06:16;;;;;;;6.05;1.25;;;24.80;99.90;;;;;;5091421;28;20517;-74
2022/03/16 07:08:43;;;;;;;7.80;1.50;;;25.00;99.90;;;;;;5092637;28;20035;-74
2022/03/16 07:11:11;;;;;;;11.05;1.98;;;24.80;99.90;;;;;;5092657;28;20483;-72
2022/03/16 07:13:41;;;;;;;11.10;2.10;;;24.50;99.90;;;;;;5093237;28;20031;-73
2022/03/16 07:16:09;;;;;;;12.85;1.55;;;24.20;99.90;;;;;;5093208;28;20020;-72
2022/03/16 07:18:36;;;;;;;11.73;2.08;;;24.00;99.90;;;;;;5093115;28;20019;-73
2022/03/16 07:21:04;;;;;;;8.63;1.70;;;23.80;99.90;;;;;;5093110;28;20030;-73
2022/03/16 07:23:31;;;;;;;9.93;2.53;;;23.70;99.90;;;;;;5092960;28;20016;-73
2022/03/16 07:25:58;;;;;;;12.07;2.38;;;23.60;99.90;;;;;;5091680;28;20024;-73
2022/03/16 07:28:26;;;;;;;13.95;2.58;;;23.60;99.90;;;;;;5092978;28;20015;-73
2022/03/16 07:30:53;;;;;;;6.28;1.75;;;23.50;99.90;;;;;;5093036;28;20470;-73
2022/03/16 07:33:20;;;;;;;10.95;2.30;;;23.40;99.90;;;;;;5092642;28;20476;-73
2022/03/16 07:35:48;;;;;;;10.23;1.92;;;23.30;99.90;;;;;;5092920;28;20458;-73
2022/03/16 07:38:15;;;;;;;11.88;2.28;;;23.30;99.90;;;;;;5091568;28;20438;-74
2022/03/16 07:40:44;;;;;;;8.52;2.20;;;23.20;99.90;;;;;;5092967;28;20016;-74
2022/03/16 07:43:11;;;;;;;12.15;2.28;;;23.10;99.90;;;;;;5092776;28;20111;-72
2022/03/16 07:45:39;;;;;;;9.77;1.70;;;23.10;99.90;;;;;;5091428;28;20054;-72
2022/03/16 07:48:07;;;;;;;12.15;2.45;;;23.00;99.90;;;;;;5092901;28;20025;-74
2022/03/16 07:50:34;;;;;;;9.60;1.92;;;22.90;99.90;;;;;;5092775;28;20036;-73
2022/03/16 07:53:02;;;;;;;9.32;1.83;;;22.90;99.90;;;;;;5092663;28;20028;-73
2022/03/16 07:55:30;;;;;;;9.93;1.85;;;22.90;99.90;;;;;;5092994;28;20035;-72
2022/03/16 07:57:57;;;;;;;13.77;2.63;;;22.90;99.90;;;;;;5093017;28;20023;-73
2022/03/16 08:00:26;;;;;;;10.02;1.95;;;22.90;99.90;;;;;;5092655;28;20024;-74
2022/03/16 08:02:57;;;;;;;9.38;2.17;;;22.80;99.90;;;;;;5091271;28;20364;-72
2022/03/16 08:05:24;;;;;;;12.77;2.95;;;22.80;99.90;;;;;;5092503;28;20052;-73
2022/03/16 08:07:51;;;;;;;11.18;2.33;;;22.70;99.90;;;;;;5091196;28;20024;-73
2022/03/16 08:10:19;;;;;;;11.65;2.50;;;22.70;99.90;;;;;;5092644;28;20508;-74
2022/03/16 08:12:46;;;;;;;11.43;2.30;;;22.60;99.90;;;;;;5095239;28;20028;-74
2022/03/16 08:15:14;;;;;;;15.93;3.20;;;22.60;99.90;;;;;;5095141;28;20039;-72
2022/03/16 08:17:42;;;;;;;11.43;2.63;;;22.50;99.90;;;;;;5096578;28;20040;-72
2022/03/16 08:20:09;;;;;;;11.75;2.53;;;22.50;99.90;;;;;;5096411;28;20016;-74
2022/03/16 08:22:37;;;;;;;11.32;2.40;;;22.50;99.90;;;;;;5095139;28;20131;-73
2022/03/16 08:25:10;;;;;;;13.90;2.38;;;22.50;99.90;;;;;;5096433;28;20028;-73
2022/03/16 08:27:41;;;;;;;12.32;1.83;;;22.40;99.90;;;;;;5095372;28;20042;-73
2022/03/16 08:30:10;;;;;;;9.60;1.88;;;22.40;99.90;;;;;;5094971;28;20038;-73
2022/03/16 08:32:38;;;;;;;9.80;1.90;;;22.40;99.90;;;;;;5096301;28;20020;-74
2022/03/16 08:35:06;;;;;;;10.63;2.13;;;22.30;99.90;;;;;;5094650;28;20075;-74
2022/03/16 08:37:34;;;;;;;9.48;2.20;;;22.30;99.90;;;;;;5096232;28;20039;-74
2022/03/16 08:40:01;;;;;;;9.18;1.52;;;22.20;99.90;;;;;;5096206;28;20021;-74
2022/03/16 08:42:29;;;;;;;9.05;1.90;;;22.20;99.90;;;;;;5094823;28;20073;-74
2022/03/16 08:44:56;;;;;;;12.40;2.85;;;22.20;99.90;;;;;;5096150;28;20541;-74
2022/03/16 08:47:24;;;;;;;7.80;1.70;;;22.20;99.90;;;;;;5096142;28;20020;-74
2022/03/16 08:49:55;;;;;;;13.10;3.10;;;22.20;99.90;;;;;;5094850;28;20024;-74
2022/03/16 08:52:21;;;;;;;;;;;22.20;99.90;;;;;;5095193;28;20031;-75
2022/03/16 08:54:50;;;;;;;10.02;1.70;;;22.20;99.90;;;;;;5095909;28;20387;-74
2022/03/16 08:57:21;;;;;;;11.80;2.53;;;22.20;99.90;;;;;;5095997;28;20021;-74
2022/03/16 08:59:49;;;;;;;12.77;2.08;;;22.20;99.90;;;;;;5095958;28;20031;-74
2022/03/16 09:02:17;;;;;;;10.30;2.45;;;22.20;99.90;;;;;;5095829;28;20470;-74
2022/03/16 09:04:44;;;;;;;10.70;2.30;;;22.20;99.90;;;;;;5094267;28;20073;-74
2022/03/16 09:07:12;;;;;;;13.05;2.28;;;22.20;99.90;;;;;;5095676;28;20024;-75
2022/03/16 09:09:40;;;;;;;14.68;2.53;;;22.20;99.90;;;;;;5095713;28;20428;-75
2022/03/16 09:12:11;;;;;;;10.23;2.38;;;22.20;99.90;;;;;;5094251;28;20035;-75
2022/03/16 09:14:39;;;;;;;14.00;2.10;;;22.20;99.90;;;;;;5094235;28;20074;-74
2022/03/16 09:17:10;;;;;;;12.93;2.47;;;22.10;99.90;;;;;;5095482;28;20047;-74
2022/03/16 09:19:37;;;;;;;11.35;2.30;;;22.10;99.90;;;;;;5095547;28;20425;-74
2022/03/16 09:22:05;;;;;;;12.13;2.72;;;22.10;99.90;;;;;;5095440;28;20039;-75
2022/03/16 09:24:32;;;;;;;15.77;3.13;;;22.00;99.90;;;;;;5093453;28;20055;-75
2022/03/16 09:27:00;;;;;;;11.60;2.95;;;22.00;99.90;;;;;;5094066;28;20028;-75
2022/03/16 09:29:30;;;;;;;12.32;2.58;;;22.00;99.90;;;;;;5095228;28;20381;-75
2022/03/16 09:31:57;;;;;;;;;;;21.90;99.90;;;;;;5094438;28;20016;-75
2022/03/16 09:34:24;;;;;;;11.02;2.42;;;21.90;99.90;;;;;;5094957;28;19938;-75
2022/03/16 09:36:52;;;;;;;13.40;2.20;;;21.80;99.90;;;;;;5093860;28;20028;-75
2022/03/16 09:39:19;;;;;;;9.00;2.10;;;21.80;99.90;;;;;;5095098;28;20030;-75
2022/03/16 09:41:47;;;;;;;14.15;2.70;;;21.80;99.90;;;;;;5095101;28;20023;-75
2022/03/16 09:44:15;;;;;;;14.57;2.55;;;21.70;99.90;;;;;;5094988;28;20016;-75
2022/03/16 09:46:44;;;;;;;13.65;2.80;;;21.80;99.90;;;;;;5095052;28;20082;-75
2022/03/16 09:49:15;;;;;;;15.68;3.45;;;21.80;99.90;;;;;;5094894;28;20020;-75
2022/03/16 09:51:42;;;;;;;10.07;2.53;;;21.80;99.90;;;;;;5095015;28;20081;-75
2022/03/16 09:54:09;;;;;;;13.65;2.67;;;21.80;99.90;;;;;;5093628;28;20064;-74
2022/03/16 09:56:38;;;;;;;6.93;1.45;;;21.90;99.90;;;;;;5093460;28;20078;-75
2022/03/16 09:59:05;;;;;;;8.82;2.17;;;21.80;99.90;;;;;;5093435;28;20128;-76
2022/03/16 10:01:35;;;;;;;10.55;1.92;;;21.80;99.90;;;;;;5094730;28;20044;-74
2022/03/16 10:04:06;;;;;;;10.98;2.35;;;21.90;99.90;;;;;;5093288;28;20028;-74
2022/03/16 10:06:36;;;;;;;9.02;1.83;;;21.80;99.90;;;;;;5094589;28;20396;-74
2022/03/16 10:15:13;;;;;;;8.20;1.90;;;21.70;99.90;;;;;;5094671;28;20031;-75
2022/03/16 10:17:48;;;;;;;9.98;1.80;;;21.70;99.90;;;;;;5094545;28;20024;-75
2022/03/16 10:20:30;;;;;;;9.65;1.90;;;21.60;99.90;;;;;;5093101;28;20753;-75
2022/03/16 10:23:02;;;;;;;6.93;1.50;;;21.60;99.90;;;;;;5092940;28;20020;-75
2022/03/16 10:25:32;;;;;;;11.10;2.10;;;21.50;99.90;;;;;;5092915;28;20134;-75
2022/03/16 10:28:11;;;;;;;;;;;21.50;99.90;;;;;;5094527;28;20032;-74
2022/03/16 10:31:08;;;;;;;13.00;2.00;;;21.50;99.90;;;;;;5092826;28;20283;-75
2022/03/16 10:33:44;;;;;;;6.88;1.30;;;21.50;99.90;;;;;;5093673;28;20127;-74
2022/03/16 10:36:13;;;;;;;13.52;2.22;;;21.50;99.90;;;;;;5093010;28;20421;-75
2022/03/16 10:38:47;;;;;;;8.63;1.98;;;21.40;99.90;;;;;;5094027;28;20107;-75
2022/03/16 10:46:56;;;;;;;8.13;1.70;;;21.30;99.90;;;;;;5094132;28;20058;-74
2022/03/16 10:49:24;;;;;;;9.45;2.25;;;21.30;99.90;;;;;;5093725;28;20035;-74
2022/03/16 10:52:09;;;;;;;12.18;2.05;;;21.30;99.90;;;;;;5092364;28;20059;-74
2022/03/16 10:54:37;;;;;;;7.75;1.70;;;21.30;99.90;;;;;;5092253;28;20032;-74
2022/03/16 10:57:13;;;;;;;9.73;1.67;;;21.30;99.90;;;;;;5092259;28;20396;-74
2022/03/16 10:59:42;;;;;;;9.23;1.90;;;21.30;99.90;;;;;;5093630;28;20020;-74
2022/03/16 11:02:15;;;;;;;7.82;1.52;;;21.30;99.90;;;;;;5093573;28;20055;-74
2022/03/16 11:04:47;;;;;;;8.13;1.63;;;21.30;99.90;;;;;;5092189;28;20028;-74
2022/03/16 11:07:15;;;;;;;8.73;1.73;;;21.30;99.90;;;;;;5093478;28;20429;-74
2022/03/16 11:09:43;;;;;;;9.38;1.88;;;21.30;99.90;;;;;;5093307;28;20498;-74
2022/03/16 11:14:58;;;;;;;8.65;1.60;;;21.30;99.90;;;;;;5093280;28;20059;-75
2022/03/16 11:17:26;;;;;;;11.93;1.37;;;21.20;99.90;;;;;;5093296;28;20035;-76
2022/03/16 11:19:56;;;;;;;7.30;2.00;;;21.20;99.90;;;;;;5091844;28;20032;-75
2022/03/16 11:24:15;;;;;;;7.75;1.88;;;21.10;99.90;;;;;;5091873;28;20020;-76
2022/03/16 11:25:29;;;;;;;12.00;1.95;;;21.10;99.90;;;;;;5093141;28;20051;-75
2022/03/16 11:27:58;;;;;;;9.20;1.70;;;21.10;99.90;;;;;;5091855;28;20016;-75
2022/03/16 11:30:36;;;;;;;9.55;1.58;;;21.10;99.90;;;;;;5091782;28;20056;-75
2022/03/16 11:33:20;;;;;;;8.85;1.70;;;21.00;99.90;;;;;;5092599;28;20016;-74
2022/03/16 11:35:52;;;;;;;7.30;1.40;;;21.00;99.90;;;;;;5092944;28;20020;-74
2022/03/16 11:38:21;;;;;;;8.88;1.48;;;21.00;99.90;;;;;;5091820;28;20048;-75
2022/03/16 11:40:50;;;;;;;10.68;1.38;;;21.00;99.90;;;;;;5092971;28;20032;-74
2022/03/16 11:43:25;;;;;;;10.20;1.80;;;20.90;99.90;;;;;;5092918;28;20406;-74
2022/03/16 11:45:58;;;;;;;8.20;1.50;;;20.90;99.90;;;;;;5091570;28;20056;-75
2022/03/16 11:48:32;;;;;;;8.23;1.88;;;20.90;99.90;;;;;;5091437;28;20077;-74
2022/03/16 11:51:12;;;;;;;5.13;1.45;;;20.90;99.90;;;;;;5091625;28;20488;-74
2022/03/16 11:56:25;;;;;;;7.43;1.30;;;20.80;99.90;;;;;;5092764;28;20024;-74
2022/03/16 11:59:00;;;;;;;8.30;1.75;;;20.70;99.90;;;;;;5091429;28;20020;-73
2022/03/16 12:01:32;;;;;;;5.70;1.42;;;20.70;99.90;;;;;;5091410;28;20017;-74
2022/03/16 12:04:12;;;;;;;9.60;1.75;;;20.70;99.90;;;;;;5090986;28;20543;-74
2022/03/16 12:07:05;;;;;;;8.80;1.52;;;20.70;99.90;;;;;;5091081;28;20032;-75
2022/03/16 12:09:41;;;;;;;6.43;1.33;;;20.60;99.90;;;;;;5080692;28;20085;-74
2022/03/16 12:14:59;;;;;;;9.02;1.65;;;20.60;99.90;;;;;;5092655;28;20434;-74
2022/03/16 12:17:26;;;;;;;7.53;1.50;;;20.60;99.90;;;;;;5092619;28;20392;-74
2022/03/16 12:20:15;;;;;;;7.32;1.80;;;20.60;99.90;;;;;;5092588;28;20024;-75
2022/03/16 12:22:59;;;;;;;8.98;2.22;;;20.40;99.90;;;;;;5092655;28;20512;-74
2022/03/16 12:25:29;;;;;;;6.75;1.42;;;20.40;99.90;;;;;;5092924;28;20027;-74
2022/03/16 12:31:01;;;;;;;5.47;1.63;;;20.40;99.90;;;;;;5092837;28;20404;-74
2022/03/16 12:33:37;;;;;;;5.15;1.52;;;20.40;99.90;;;;;;5091001;28;20416;-74
2022/03/16 12:36:13;;;;;;;8.55;2.17;;;20.40;99.90;;;;;;5091102;28;20024;-75
2022/03/16 12:38:55;;;;;;;6.32;1.50;;;20.40;99.90;;;;;;5092540;28;20050;-75
2022/03/16 12:44:12;;;;;;;7.30;1.77;;;20.30;99.90;;;;;;5092504;28;20069;-74
2022/03/16 12:46:48;;;;;;;9.07;2.05;;;20.30;99.90;;;;;;5091049;28;20425;-74
2022/03/16 12:49:18;;;;;;;4.88;1.48;;;20.30;99.90;;;;;;5090895;28;20058;-75
2022/03/16 12:51:53;;;;;;;7.45;1.50;;;20.20;99.90;;;;;;5092213;28;20477;-74
2022/03/16 12:54:33;;;;;;;6.10;1.48;;;20.30;99.90;;;;;;5092291;28;20035;-75
2022/03/16 12:57:05;;;;;;;6.45;1.45;;;20.20;99.90;;;;;;5092276;28;20111;-74
2022/03/16 12:59:35;;;;;;;10.73;1.70;;;20.30;99.90;;;;;;5094382;28;20032;-74
2022/03/16 13:02:07;;;;;;;7.87;1.80;;;20.20;99.90;;;;;;5095813;28;20362;-74
2022/03/16 13:04:35;;;;;;;6.65;1.50;;;20.20;99.90;;;;;;5094424;28;20351;-74
2022/03/16 13:07:02;;;;;;;5.82;1.30;;;20.20;99.90;;;;;;5095695;28;20020;-74
2022/03/16 13:09:31;;;;;;;8.25;1.30;;;20.20;99.90;;;;;;5095659;28;20051;-74
2022/03/16 13:12:15;;;;;;;7.72;1.27;;;20.20;99.90;;;;;;5094376;28;20048;-74
2022/03/16 13:14:47;;;;;;;7.07;1.65;;;20.10;99.90;;;;;;5095506;28;20048;-74
2022/03/16 13:17:16;;;;;;;6.00;1.90;;;20.10;99.90;;;;;;5095556;28;20510;-74
2022/03/16 13:19:54;;;;;;;7.63;1.50;;;20.10;99.90;;;;;;5095490;28;20069;-74
2022/03/16 13:22:23;;;;;;;6.93;1.40;;;20.10;99.90;;;;;;5095499;28;20469;-75